sensor_id;sensor_type;location;lat;lon;timestamp;temperature;humidity
12557;DHT22;6344;49.932;8.308;2023-01-15T00:02:03;10.30;99.90
12557;DHT22;6344;49.932;8.308;2023-01-15T00:04:33;10.40;99.90
12557;DHT22;6344;49.932;8.308;2023-01-15T00:06:59;10.40;99.90
12557;DHT22;6344;49.932;8.308;2023-01-15T00:09:26;10.40;99.90
12557;DHT22;6344;49.932;8.308;2023-01-15T00:11:52;10.40;99.90
12557;DHT22;6344;49.932;8.308;2023-01-15T00:14:21;10.40;99.90
12557;DHT22;6344;49.932;8.308;2023-01-15T00:17:04;10.40;99.90
12557;DHT22;6344;49.932;8.308;2023-01-15T00:19:30;10.40;99.90
12557;DHT22;6344;49.932;8.308;2023-01-15T00:22:00;10.50;99.90
12557;DHT22;6344;49.932;8.308;2023-01-15T00:24:29;10.50;99.90
12557;DHT22;6344;49.932;8.308;2023-01-15T00:27:17;10.50;99.90
12557;DHT22;6344;49.932;8.308;2023-01-15T00:30:01;10.50;99.90
12557;DHT22;6344;49.932;8.308;2023-01-15T00:32:30;10.50;99.90
12557;DHT22;6344;49.932;8.308;2023-01-15T00:35:00;10.50;99.90
12557;DHT22;6344;49.932;8.308;2023-01-15T00:37:26;10.50;99.90
12557;DHT22;6344;49.932;8.308;2023-01-15T00:39:53;10.50;99.90
12557;DHT22;6344;49.932;8.308;2023-01-15T00:42:20;10.50;99.90
12557;DHT22;6344;49.932;8.308;2023-01-15T00:44:46;10.50;99.90
12557;DHT22;6344;49.932;8.308;2023-01-15T00:47:15;10.50;99.90
12557;DHT22;6344;49.932;8.308;2023-01-15T00:49:43;10.50;99.90
12557;DHT22;6344;49.932;8.308;2023-01-15T00:52:13;10.40;99.90
12557;DHT22;6344;49.932;8.308;2023-01-15T00:54:40;10.40;99.90
12557;DHT22;6344;49.932;8.308;2023-01-15T00:57:08;10.40;99.90
12557;DHT22;6344;49.932;8.308;2023-01-15T00:59:35;10.30;99.90
12557;DHT22;6344;49.932;8.308;2023-01-15T01:02:03;10.20;99.90
12557;DHT22;6344;49.932;8.308;2023-01-15T01:04:31;10.20;99.90
12557;DHT22;6344;49.932;8.308;2023-01-15T01:07:01;10.20;99.90
12557;DHT22;6344;49.932;8.308;2023-01-15T01:09:27;10.10;99.90
12557;DHT22;6344;49.932;8.308;2023-01-15T01:11:54;10.10;99.90
12557;DHT22;6344;49.932;8.308;2023-01-15T01:14:23;10.10;99.90
12557;DHT22;6344;49.932;8.308;2023-01-15T01:16:50;10.10;99.90
12557;DHT22;6344;49.932;8.308;2023-01-15T01:19:20;10.00;99.90
12557;DHT22;6344;49.932;8.308;2023-01-15T01:21:47;10.00;99.90
12557;DHT22;6344;49.932;8.308;2023-01-15T01:24:22;10.00;99.90
12557;DHT22;6344;49.932;8.308;2023-01-15T01:26:51;10.00;99.90
12557;DHT22;6344;49.932;8.308;2023-01-15T01:29:21;10.00;99.90
12557;DHT22;6344;49.932;8.308;2023-01-15T01:31:49;10.00;99.90
12557;DHT22;6344;49.932;8.308;2023-01-15T01:34:18;9.90;99.90
12557;DHT22;6344;49.932;8.308;2023-01-15T01:36:48;9.90;99.90
12557;DHT22;6344;49.932;8.308;2023-01-15T01:39:18;9.80;99.90
12557;DHT22;6344;49.932;8.308;2023-01-15T01:41:51;9.80;99.90
12557;DHT22;6344;49.932;8.308;2023-01-15T01:47:24;9.70;99.90
12557;DHT22;6344;49.932;8.308;2023-01-15T01:49:53;9.60;99.90
12557;DHT22;6344;49.932;8.308;2023-01-15T01:52:26;9.60;99.90
12557;DHT22;6344;49.932;8.308;2023-01-15T01:55:01;9.60;99.90
12557;DHT22;6344;49.932;8.308;2023-01-15T01:57:32;9.60;99.90
12557;DHT22;6344;49.932;8.308;2023-01-15T02:00:00;9.50;99.90
12557;DHT22;6344;49.932;8.308;2023-01-15T02:02:29;9.50;99.90
12557;DHT22;6344;49.932;8.308;2023-01-15T02:04:57;9.50;99.90
12557;DHT22;6344;49.932;8.308;2023-01-15T02:07:24;9.50;99.90
12557;DHT22;6344;49.932;8.308;2023-01-15T02:09:50;9.40;99.90
12557;DHT22;6344;49.932;8.308;2023-01-15T02:12:24;9.40;99.90
12557;DHT22;6344;49.932;8.308;2023-01-15T02:15:01;9.40;99.90
12557;DHT22;6344;49.932;8.308;2023-01-15T02:17:33;9.40;99.90
12557;DHT22;6344;49.932;8.308;2023-01-15T02:20:29;9.30;99.90
12557;DHT22;6344;49.932;8.308;2023-01-15T02:26:06;9.10;99.90
12557;DHT22;6344;49.932;8.308;2023-01-15T02:28:40;9.00;99.90
12557;DHT22;6344;49.932;8.308;2023-01-15T02:31:14;8.80;99.90
12557;DHT22;6344;49.932;8.308;2023-01-15T02:33:46;8.70;99.90
12557;DHT22;6344;49.932;8.308;2023-01-15T02:36:17;8.60;99.90
12557;DHT22;6344;49.932;8.308;2023-01-15T02:38:47;8.40;99.90
12557;DHT22;6344;49.932;8.308;2023-01-15T02:41:24;8.30;99.90
12557;DHT22;6344;49.932;8.308;2023-01-15T02:43:55;8.20;99.90
12557;DHT22;6344;49.932;8.308;2023-01-15T02:46:29;8.20;99.90
12557;DHT22;6344;49.932;8.308;2023-01-15T02:49:02;8.10;99.90
12557;DHT22;6344;49.932;8.308;2023-01-15T02:51:36;8.00;99.90
12557;DHT22;6344;49.932;8.308;2023-01-15T02:54:10;7.90;99.90
12557;DHT22;6344;49.932;8.308;2023-01-15T02:56:39;7.90;99.90
12557;DHT22;6344;49.932;8.308;2023-01-15T02:59:14;7.90;99.90
12557;DHT22;6344;49.932;8.308;2023-01-15T03:01:44;7.90;99.90
12557;DHT22;6344;49.932;8.308;2023-01-15T03:04:16;7.80;99.90
12557;DHT22;6344;49.932;8.308;2023-01-15T03:06:50;7.80;99.90
12557;DHT22;6344;49.932;8.308;2023-01-15T03:09:18;7.80;99.90
12557;DHT22;6344;49.932;8.308;2023-01-15T03:11:48;7.80;99.90
12557;DHT22;6344;49.932;8.308;2023-01-15T03:14:23;7.80;99.90
12557;DHT22;6344;49.932;8.308;2023-01-15T03:16:55;7.80;99.90
12557;DHT22;6344;49.932;8.308;2023-01-15T03:19:26;7.80;99.90
12557;DHT22;6344;49.932;8.308;2023-01-15T03:21:57;7.80;99.90
12557;DHT22;6344;49.932;8.308;2023-01-15T03:24:31;7.80;99.90
12557;DHT22;6344;49.932;8.308;2023-01-15T03:26:58;7.70;99.90
12557;DHT22;6344;49.932;8.308;2023-01-15T03:29:33;7.70;99.90
12557;DHT22;6344;49.932;8.308;2023-01-15T03:32:01;7.70;99.90
12557;DHT22;6344;49.932;8.308;2023-01-15T03:34:33;7.60;99.90
12557;DHT22;6344;49.932;8.308;2023-01-15T03:37:03;7.60;99.90
12557;DHT22;6344;49.932;8.308;2023-01-15T03:39:31;7.60;99.90
12557;DHT22;6344;49.932;8.308;2023-01-15T03:42:12;7.60;99.90
12557;DHT22;6344;49.932;8.308;2023-01-15T03:44:47;7.60;99.90
12557;DHT22;6344;49.932;8.308;2023-01-15T03:47:26;7.50;99.90
12557;DHT22;6344;49.932;8.308;2023-01-15T03:50:04;7.50;99.90
12557;DHT22;6344;49.932;8.308;2023-01-15T03:52:41;7.50;99.90
12557;DHT22;6344;49.932;8.308;2023-01-15T03:55:16;7.40;99.90
12557;DHT22;6344;49.932;8.308;2023-01-15T03:57:48;7.40;99.90
12557;DHT22;6344;49.932;8.308;2023-01-15T04:00:21;7.40;99.90
12557;DHT22;6344;49.932;8.308;2023-01-15T04:02:54;7.30;99.90
12557;DHT22;6344;49.932;8.308;2023-01-15T04:05:28;7.30;99.90
12557;DHT22;6344;49.932;8.308;2023-01-15T04:07:58;7.30;99.90
12557;DHT22;6344;49.932;8.308;2023-01-15T04:10:26;7.30;99.90
12557;DHT22;6344;49.932;8.308;2023-01-15T04:12:52;7.20;99.90
12557;DHT22;6344;49.932;8.308;2023-01-15T04:15:20;7.20;99.90
12557;DHT22;6344;49.932;8.308;2023-01-15T04:17:49;7.20;99.90
12557;DHT22;6344;49.932;8.308;2023-01-15T04:20:19;7.10;99.90
12557;DHT22;6344;49.932;8.308;2023-01-15T04:22:45;7.00;99.90
12557;DHT22;6344;49.932;8.308;2023-01-15T04:25:17;7.00;99.90
12557;DHT22;6344;49.932;8.308;2023-01-15T04:27:43;7.00;99.90
12557;DHT22;6344;49.932;8.308;2023-01-15T04:30:12;6.90;99.90
12557;DHT22;6344;49.932;8.308;2023-01-15T04:32:46;6.90;99.90
12557;DHT22;6344;49.932;8.308;2023-01-15T04:35:15;6.80;99.90
12557;DHT22;6344;49.932;8.308;2023-01-15T04:37:43;6.80;99.90
12557;DHT22;6344;49.932;8.308;2023-01-15T04:40:13;6.70;99.90
12557;DHT22;6344;49.932;8.308;2023-01-15T04:43:02;6.40;99.90
12557;DHT22;6344;49.932;8.308;2023-01-15T04:45:46;6.20;99.90
12557;DHT22;6344;49.932;8.308;2023-01-15T04:48:14;6.10;99.90
12557;DHT22;6344;49.932;8.308;2023-01-15T04:50:41;6.00;99.90
12557;DHT22;6344;49.932;8.308;2023-01-15T04:53:07;5.90;99.90
12557;DHT22;6344;49.932;8.308;2023-01-15T04:55:36;5.90;99.90
12557;DHT22;6344;49.932;8.308;2023-01-15T04:58:03;5.90;99.90
12557;DHT22;6344;49.932;8.308;2023-01-15T05:00:34;5.90;99.90
12557;DHT22;6344;49.932;8.308;2023-01-15T05:03:02;5.80;99.90
12557;DHT22;6344;49.932;8.308;2023-01-15T05:05:39;5.80;99.90
12557;DHT22;6344;49.932;8.308;2023-01-15T05:08:08;5.80;99.90
12557;DHT22;6344;49.932;8.308;2023-01-15T05:10:37;5.80;99.90
12557;DHT22;6344;49.932;8.308;2023-01-15T05:13:04;5.70;99.90
12557;DHT22;6344;49.932;8.308;2023-01-15T05:15:31;5.70;99.90
12557;DHT22;6344;49.932;8.308;2023-01-15T05:17:57;5.60;99.90
12557;DHT22;6344;49.932;8.308;2023-01-15T05:20:25;5.60;99.90
12557;DHT22;6344;49.932;8.308;2023-01-15T05:22:58;5.60;99.90
12557;DHT22;6344;49.932;8.308;2023-01-15T05:25:26;5.50;99.90
12557;DHT22;6344;49.932;8.308;2023-01-15T05:27:54;5.50;99.90
12557;DHT22;6344;49.932;8.308;2023-01-15T05:30:24;5.50;99.90
12557;DHT22;6344;49.932;8.308;2023-01-15T05:32:54;5.50;99.90
12557;DHT22;6344;49.932;8.308;2023-01-15T05:35:23;5.40;99.90
12557;DHT22;6344;49.932;8.308;2023-01-15T05:37:52;5.40;99.90
12557;DHT22;6344;49.932;8.308;2023-01-15T05:40:21;5.50;99.90
12557;DHT22;6344;49.932;8.308;2023-01-15T05:42:48;5.50;99.90
12557;DHT22;6344;49.932;8.308;2023-01-15T05:45:17;5.40;99.90
12557;DHT22;6344;49.932;8.308;2023-01-15T05:47:43;5.40;99.90
12557;DHT22;6344;49.932;8.308;2023-01-15T05:50:10;5.40;99.90
12557;DHT22;6344;49.932;8.308;2023-01-15T05:52:39;5.50;99.90
12557;DHT22;6344;49.932;8.308;2023-01-15T05:55:08;5.50;99.90
12557;DHT22;6344;49.932;8.308;2023-01-15T05:57:36;5.60;99.90
12557;DHT22;6344;49.932;8.308;2023-01-15T06:00:04;5.60;99.90
12557;DHT22;6344;49.932;8.308;2023-01-15T06:02:30;5.60;99.90
12557;DHT22;6344;49.932;8.308;2023-01-15T06:05:00;5.60;99.90
12557;DHT22;6344;49.932;8.308;2023-01-15T06:07:36;5.50;99.90
12557;DHT22;6344;49.932;8.308;2023-01-15T06:10:03;5.50;99.90
12557;DHT22;6344;49.932;8.308;2023-01-15T06:12:33;5.40;99.90
12557;DHT22;6344;49.932;8.308;2023-01-15T06:15:01;5.40;99.90
12557;DHT22;6344;49.932;8.308;2023-01-15T06:17:27;5.40;99.90
12557;DHT22;6344;49.932;8.308;2023-01-15T06:19:57;5.40;99.90
12557;DHT22;6344;49.932;8.308;2023-01-15T06:22:23;5.50;99.90
12557;DHT22;6344;49.932;8.308;2023-01-15T06:24:52;5.50;99.90
12557;DHT22;6344;49.932;8.308;2023-01-15T06:27:21;5.60;99.90
12557;DHT22;6344;49.932;8.308;2023-01-15T06:29:48;5.60;99.90
12557;DHT22;6344;49.932;8.308;2023-01-15T06:32:18;5.60;99.90
12557;DHT22;6344;49.932;8.308;2023-01-15T06:34:48;5.60;99.90
12557;DHT22;6344;49.932;8.308;2023-01-15T06:37:15;5.60;99.90
12557;DHT22;6344;49.932;8.308;2023-01-15T06:39:41;5.50;99.90
12557;DHT22;6344;49.932;8.308;2023-01-15T06:42:08;5.50;99.90
12557;DHT22;6344;49.932;8.308;2023-01-15T06:44:59;5.50;99.90
12557;DHT22;6344;49.932;8.308;2023-01-15T06:47:46;5.50;99.90
12557;DHT22;6344;49.932;8.308;2023-01-15T06:50:18;5.60;99.90
12557;DHT22;6344;49.932;8.308;2023-01-15T06:52:47;5.50;99.90
12557;DHT22;6344;49.932;8.308;2023-01-15T06:55:16;5.60;99.90
12557;DHT22;6344;49.932;8.308;2023-01-15T06:57:49;5.60;99.90
12557;DHT22;6344;49.932;8.308;2023-01-15T07:00:17;5.50;99.90
12557;DHT22;6344;49.932;8.308;2023-01-15T07:02:45;5.50;99.90
12557;DHT22;6344;49.932;8.308;2023-01-15T07:05:15;5.50;99.90
12557;DHT22;6344;49.932;8.308;2023-01-15T07:07:42;5.50;99.90
12557;DHT22;6344;49.932;8.308;2023-01-15T07:10:12;5.50;99.90
12557;DHT22;6344;49.932;8.308;2023-01-15T07:12:40;5.60;99.90
12557;DHT22;6344;49.932;8.308;2023-01-15T07:15:08;5.70;99.90
12557;DHT22;6344;49.932;8.308;2023-01-15T07:17:36;5.70;99.90
12557;DHT22;6344;49.932;8.308;2023-01-15T07:20:06;5.60;99.90
12557;DHT22;6344;49.932;8.308;2023-01-15T07:22:33;5.70;99.90
12557;DHT22;6344;49.932;8.308;2023-01-15T07:25:02;5.60;99.90
12557;DHT22;6344;49.932;8.308;2023-01-15T07:27:33;5.60;99.90
12557;DHT22;6344;49.932;8.308;2023-01-15T07:30:03;5.60;99.90
12557;DHT22;6344;49.932;8.308;2023-01-15T07:32:30;5.60;99.90
12557;DHT22;6344;49.932;8.308;2023-01-15T07:34:58;5.50;99.90
12557;DHT22;6344;49.932;8.308;2023-01-15T07:37:31;5.50;99.90
12557;DHT22;6344;49.932;8.308;2023-01-15T07:39:57;5.60;99.90
12557;DHT22;6344;49.932;8.308;2023-01-15T07:42:24;5.60;99.90
12557;DHT22;6344;49.932;8.308;2023-01-15T07:45:10;5.60;99.90
12557;DHT22;6344;49.932;8.308;2023-01-15T07:47:57;5.50;99.90
12557;DHT22;6344;49.932;8.308;2023-01-15T07:50:41;5.60;99.90
12557;DHT22;6344;49.932;8.308;2023-01-15T07:53:12;5.50;99.90
12557;DHT22;6344;49.932;8.308;2023-01-15T07:55:42;5.40;99.90
12557;DHT22;6344;49.932;8.308;2023-01-15T07:58:12;5.40;99.90
12557;DHT22;6344;49.932;8.308;2023-01-15T08:00:39;5.40;99.90
12557;DHT22;6344;49.932;8.308;2023-01-15T08:03:06;5.30;99.90
12557;DHT22;6344;49.932;8.308;2023-01-15T08:05:36;5.40;99.90
12557;DHT22;6344;49.932;8.308;2023-01-15T08:08:04;5.30;99.90
12557;DHT22;6344;49.932;8.308;2023-01-15T08:10:32;5.30;99.90
12557;DHT22;6344;49.932;8.308;2023-01-15T08:13:21;5.30;99.90
12557;DHT22;6344;49.932;8.308;2023-01-15T08:16:02;5.40;99.90
12557;DHT22;6344;49.932;8.308;2023-01-15T08:18:33;5.40;99.90
12557;DHT22;6344;49.932;8.308;2023-01-15T08:21:01;5.40;99.90
12557;DHT22;6344;49.932;8.308;2023-01-15T08:23:28;5.40;99.90
12557;DHT22;6344;49.932;8.308;2023-01-15T08:25:59;5.40;99.90
12557;DHT22;6344;49.932;8.308;2023-01-15T08:28:26;5.40;99.90
12557;DHT22;6344;49.932;8.308;2023-01-15T08:30:52;5.40;99.90
12557;DHT22;6344;49.932;8.308;2023-01-15T08:33:20;5.50;99.90
12557;DHT22;6344;49.932;8.308;2023-01-15T08:35:46;5.40;99.90
12557;DHT22;6344;49.932;8.308;2023-01-15T08:38:13;5.40;99.90
12557;DHT22;6344;49.932;8.308;2023-01-15T08:40:44;5.50;99.90
12557;DHT22;6344;49.932;8.308;2023-01-15T08:43:30;5.50;99.90
12557;DHT22;6344;49.932;8.308;2023-01-15T08:45:58;5.40;99.90
12557;DHT22;6344;49.932;8.308;2023-01-15T08:48:27;5.50;99.90
12557;DHT22;6344;49.932;8.308;2023-01-15T08:50:54;5.40;99.90
12557;DHT22;6344;49.932;8.308;2023-01-15T08:53:24;5.40;99.90
12557;DHT22;6344;49.932;8.308;2023-01-15T08:55:54;5.40;99.90
12557;DHT22;6344;49.932;8.308;2023-01-15T08:58:28;5.40;99.90
12557;DHT22;6344;49.932;8.308;2023-01-15T09:01:04;5.50;99.90
12557;DHT22;6344;49.932;8.308;2023-01-15T09:03:31;5.50;99.90
12557;DHT22;6344;49.932;8.308;2023-01-15T09:06:00;5.50;99.90
12557;DHT22;6344;49.932;8.308;2023-01-15T09:08:28;5.60;99.90
12557;DHT22;6344;49.932;8.308;2023-01-15T09:10:56;5.50;99.90
12557;DHT22;6344;49.932;8.308;2023-01-15T09:13:23;5.50;99.90
12557;DHT22;6344;49.932;8.308;2023-01-15T09:15:50;5.50;99.90
12557;DHT22;6344;49.932;8.308;2023-01-15T09:18:20;5.50;99.90
12557;DHT22;6344;49.932;8.308;2023-01-15T09:20:47;5.50;99.90
12557;DHT22;6344;49.932;8.308;2023-01-15T09:23:17;5.50;99.90
12557;DHT22;6344;49.932;8.308;2023-01-15T09:25:54;5.60;99.90
12557;DHT22;6344;49.932;8.308;2023-01-15T09:28:21;5.60;99.90
12557;DHT22;6344;49.932;8.308;2023-01-15T09:30:48;5.70;99.90
12557;DHT22;6344;49.932;8.308;2023-01-15T09:33:18;5.80;99.90
12557;DHT22;6344;49.932;8.308;2023-01-15T09:35:45;5.70;99.90
12557;DHT22;6344;49.932;8.308;2023-01-15T09:38:12;5.70;99.90
12557;DHT22;6344;49.932;8.308;2023-01-15T09:40:46;5.70;99.90
12557;DHT22;6344;49.932;8.308;2023-01-15T09:43:21;5.70;99.90
12557;DHT22;6344;49.932;8.308;2023-01-15T09:45:53;5.70;99.90
12557;DHT22;6344;49.932;8.308;2023-01-15T09:48:38;5.80;99.90
12557;DHT22;6344;49.932;8.308;2023-01-15T09:51:20;5.80;99.90
12557;DHT22;6344;49.932;8.308;2023-01-15T09:54:06;5.80;99.90
12557;DHT22;6344;49.932;8.308;2023-01-15T09:56:35;5.90;99.90
12557;DHT22;6344;49.932;8.308;2023-01-15T09:59:09;5.90;99.90
12557;DHT22;6344;49.932;8.308;2023-01-15T10:01:46;5.80;99.90
12557;DHT22;6344;49.932;8.308;2023-01-15T10:04:30;5.80;99.90
12557;DHT22;6344;49.932;8.308;2023-01-15T10:07:07;5.70;99.90
12557;DHT22;6344;49.932;8.308;2023-01-15T10:09:41;5.70;99.90
12557;DHT22;6344;49.932;8.308;2023-01-15T10:12:13;5.60;99.90
12557;DHT22;6344;49.932;8.308;2023-01-15T10:17:51;5.60;99.90
12557;DHT22;6344;49.932;8.308;2023-01-15T10:20:58;5.60;99.90
12557;DHT22;6344;49.932;8.308;2023-01-15T10:23:35;5.60;99.90
12557;DHT22;6344;49.932;8.308;2023-01-15T10:26:13;5.70;99.90
12557;DHT22;6344;49.932;8.308;2023-01-15T10:29:01;5.60;99.90
12557;DHT22;6344;49.932;8.308;2023-01-15T10:31:48;5.60;99.90
12557;DHT22;6344;49.932;8.308;2023-01-15T10:34:48;5.60;99.90
12557;DHT22;6344;49.932;8.308;2023-01-15T10:37:28;5.60;99.90
12557;DHT22;6344;49.932;8.308;2023-01-15T10:43:03;5.50;99.90
12557;DHT22;6344;49.932;8.308;2023-01-15T10:45:35;5.50;99.90
12557;DHT22;6344;49.932;8.308;2023-01-15T10:48:13;5.50;99.90
12557;DHT22;6344;49.932;8.308;2023-01-15T10:50:44;5.50;99.90
12557;DHT22;6344;49.932;8.308;2023-01-15T10:53:20;5.50;99.90
12557;DHT22;6344;49.932;8.308;2023-01-15T10:55:56;5.50;99.90
12557;DHT22;6344;49.932;8.308;2023-01-15T10:58:32;5.60;99.90
12557;DHT22;6344;49.932;8.308;2023-01-15T11:01:04;5.60;99.90
12557;DHT22;6344;49.932;8.308;2023-01-15T11:03:35;5.60;99.90
12557;DHT22;6344;49.932;8.308;2023-01-15T11:06:06;5.60;99.90
12557;DHT22;6344;49.932;8.308;2023-01-15T11:08:35;5.60;99.90
12557;DHT22;6344;49.932;8.308;2023-01-15T11:11:14;5.60;99.90
12557;DHT22;6344;49.932;8.308;2023-01-15T11:13:52;5.60;99.90
12557;DHT22;6344;49.932;8.308;2023-01-15T11:16:41;5.60;99.90
12557;DHT22;6344;49.932;8.308;2023-01-15T11:19:34;5.60;99.90
12557;DHT22;6344;49.932;8.308;2023-01-15T11:22:09;5.60;99.90
12557;DHT22;6344;49.932;8.308;2023-01-15T11:24:46;5.80;99.90
12557;DHT22;6344;49.932;8.308;2023-01-15T11:27:18;6.00;99.90
12557;DHT22;6344;49.932;8.308;2023-01-15T11:29:51;6.20;99.90
12557;DHT22;6344;49.932;8.308;2023-01-15T11:32:24;6.40;99.90
12557;DHT22;6344;49.932;8.308;2023-01-15T11:34:52;6.60;99.90
12557;DHT22;6344;49.932;8.308;2023-01-15T11:37:22;7.20;94.10
12557;DHT22;6344;49.932;8.308;2023-01-15T11:39:54;7.60;76.30
12557;DHT22;6344;49.932;8.308;2023-01-15T11:42:21;8.10;63.90
12557;DHT22;6344;49.932;8.308;2023-01-15T11:45:16;8.50;41.30
12557;DHT22;6344;49.932;8.308;2023-01-15T11:48:01;8.80;7.70
12557;DHT22;6344;49.932;8.308;2023-01-15T11:50:51;9.20;1.00
12557;DHT22;6344;49.932;8.308;2023-01-15T11:53:20;8.70;1.00
12557;DHT22;6344;49.932;8.308;2023-01-15T11:55:56;8.70;1.00
12557;DHT22;6344;49.932;8.308;2023-01-15T11:58:26;8.90;1.00
12557;DHT22;6344;49.932;8.308;2023-01-15T12:00:56;8.70;1.00
12557;DHT22;6344;49.932;8.308;2023-01-15T12:03:28;9.10;1.00
12557;DHT22;6344;49.932;8.308;2023-01-15T12:06:04;9.20;1.00
12557;DHT22;6344;49.932;8.308;2023-01-15T12:08:41;9.20;1.00
12557;DHT22;6344;49.932;8.308;2023-01-15T12:11:20;9.00;1.00
12557;DHT22;6344;49.932;8.308;2023-01-15T12:13:58;8.90;1.00
12557;DHT22;6344;49.932;8.308;2023-01-15T12:16:36;9.10;1.00
12557;DHT22;6344;49.932;8.308;2023-01-15T12:19:09;9.50;1.00
12557;DHT22;6344;49.932;8.308;2023-01-15T12:21:51;9.40;1.00
12557;DHT22;6344;49.932;8.308;2023-01-15T12:27:50;9.00;1.00
12557;DHT22;6344;49.932;8.308;2023-01-15T12:30:22;9.30;1.00
12557;DHT22;6344;49.932;8.308;2023-01-15T12:32:59;8.50;1.00
12557;DHT22;6344;49.932;8.308;2023-01-15T12:35:31;8.30;1.00
12557;DHT22;6344;49.932;8.308;2023-01-15T12:38:07;8.50;1.00
12557;DHT22;6344;49.932;8.308;2023-01-15T12:40:40;8.50;1.00
12557;DHT22;6344;49.932;8.308;2023-01-15T12:43:14;8.80;1.00
12557;DHT22;6344;49.932;8.308;2023-01-15T12:46:02;8.70;1.00
12557;DHT22;6344;49.932;8.308;2023-01-15T12:48:40;8.80;1.00
12557;DHT22;6344;49.932;8.308;2023-01-15T12:51:16;9.10;1.00
12557;DHT22;6344;49.932;8.308;2023-01-15T12:53:52;9.70;1.00
12557;DHT22;6344;49.932;8.308;2023-01-15T12:56:27;9.30;1.00
12557;DHT22;6344;49.932;8.308;2023-01-15T12:58:59;8.40;1.00
12557;DHT22;6344;49.932;8.308;2023-01-15T13:01:30;7.80;1.00
12557;DHT22;6344;49.932;8.308;2023-01-15T13:04:10;7.40;1.00
12557;DHT22;6344;49.932;8.308;2023-01-15T13:06:41;7.40;1.00
12557;DHT22;6344;49.932;8.308;2023-01-15T13:09:21;7.30;1.00
12557;DHT22;6344;49.932;8.308;2023-01-15T13:11:51;7.40;1.00
12557;DHT22;6344;49.932;8.308;2023-01-15T13:14:22;7.40;1.00
12557;DHT22;6344;49.932;8.308;2023-01-15T13:16:52;7.40;1.00
12557;DHT22;6344;49.932;8.308;2023-01-15T13:19:35;7.50;1.00
12557;DHT22;6344;49.932;8.308;2023-01-15T13:22:08;7.50;1.00
12557;DHT22;6344;49.932;8.308;2023-01-15T13:24:56;7.50;1.00
12557;DHT22;6344;49.932;8.308;2023-01-15T13:27:49;7.40;1.00
12557;DHT22;6344;49.932;8.308;2023-01-15T13:30:45;7.40;1.00
12557;DHT22;6344;49.932;8.308;2023-01-15T13:33:24;7.40;1.00
12557;DHT22;6344;49.932;8.308;2023-01-15T13:35:55;7.40;1.00
12557;DHT22;6344;49.932;8.308;2023-01-15T13:38:26;7.30;1.00
12557;DHT22;6344;49.932;8.308;2023-01-15T13:40:56;7.20;1.00
12557;DHT22;6344;49.932;8.308;2023-01-15T13:43:29;7.20;1.00
12557;DHT22;6344;49.932;8.308;2023-01-15T13:45:59;7.30;1.00
12557;DHT22;6344;49.932;8.308;2023-01-15T13:48:31;7.30;1.00
12557;DHT22;6344;49.932;8.308;2023-01-15T13:51:04;7.40;1.00
12557;DHT22;6344;49.932;8.308;2023-01-15T13:53:33;7.40;1.00
12557;DHT22;6344;49.932;8.308;2023-01-15T13:56:05;7.40;1.00
12557;DHT22;6344;49.932;8.308;2023-01-15T13:58:34;7.40;1.00
12557;DHT22;6344;49.932;8.308;2023-01-15T14:01:06;7.40;1.00
12557;DHT22;6344;49.932;8.308;2023-01-15T14:03:34;8.00;1.00
12557;DHT22;6344;49.932;8.308;2023-01-15T14:06:03;8.40;1.00
12557;DHT22;6344;49.932;8.308;2023-01-15T14:08:41;8.40;1.00
12557;DHT22;6344;49.932;8.308;2023-01-15T14:11:30;8.40;1.00
12557;DHT22;6344;49.932;8.308;2023-01-15T14:14:19;8.10;1.00
12557;DHT22;6344;49.932;8.308;2023-01-15T14:16:58;8.30;1.00
12557;DHT22;6344;49.932;8.308;2023-01-15T14:19:47;8.30;1.00
12557;DHT22;6344;49.932;8.308;2023-01-15T14:22:46;8.30;1.00
12557;DHT22;6344;49.932;8.308;2023-01-15T14:25:29;8.00;1.00
12557;DHT22;6344;49.932;8.308;2023-01-15T14:28:19;7.80;1.00
12557;DHT22;6344;49.932;8.308;2023-01-15T14:31:17;7.60;1.00
12557;DHT22;6344;49.932;8.308;2023-01-15T14:34:09;7.70;1.00
12557;DHT22;6344;49.932;8.308;2023-01-15T14:36:39;7.70;1.00
12557;DHT22;6344;49.932;8.308;2023-01-15T14:39:24;7.70;1.00
12557;DHT22;6344;49.932;8.308;2023-01-15T14:41:59;7.80;1.00
12557;DHT22;6344;49.932;8.308;2023-01-15T14:44:45;8.40;1.00
12557;DHT22;6344;49.932;8.308;2023-01-15T14:47:27;8.60;1.00
12557;DHT22;6344;49.932;8.308;2023-01-15T14:50:27;8.30;1.00
12557;DHT22;6344;49.932;8.308;2023-01-15T14:53:03;8.30;1.00
12557;DHT22;6344;49.932;8.308;2023-01-15T14:55:35;8.30;1.00
12557;DHT22;6344;49.932;8.308;2023-01-15T14:58:15;8.20;1.00
12557;DHT22;6344;49.932;8.308;2023-01-15T15:00:45;7.90;1.00
12557;DHT22;6344;49.932;8.308;2023-01-15T15:03:16;7.80;1.00
12557;DHT22;6344;49.932;8.308;2023-01-15T15:05:54;7.60;1.00
12557;DHT22;6344;49.932;8.308;2023-01-15T15:08:22;7.30;1.00
12557;DHT22;6344;49.932;8.308;2023-01-15T15:10:55;7.10;1.00
12557;DHT22;6344;49.932;8.308;2023-01-15T15:13:28;7.00;1.00
12557;DHT22;6344;49.932;8.308;2023-01-15T15:16:00;6.80;1.00
12557;DHT22;6344;49.932;8.308;2023-01-15T15:18:33;6.60;1.00
12557;DHT22;6344;49.932;8.308;2023-01-15T15:21:14;6.50;1.00
12557;DHT22;6344;49.932;8.308;2023-01-15T15:23:50;6.40;1.00
12557;DHT22;6344;49.932;8.308;2023-01-15T15:26:24;6.50;1.00
12557;DHT22;6344;49.932;8.308;2023-01-15T15:28:55;6.60;1.00
12557;DHT22;6344;49.932;8.308;2023-01-15T15:31:25;6.70;1.00
12557;DHT22;6344;49.932;8.308;2023-01-15T15:33:54;6.70;1.00
12557;DHT22;6344;49.932;8.308;2023-01-15T15:36:24;6.60;1.00
12557;DHT22;6344;49.932;8.308;2023-01-15T15:38:55;6.70;1.00
12557;DHT22;6344;49.932;8.308;2023-01-15T15:41:28;6.70;1.00
12557;DHT22;6344;49.932;8.308;2023-01-15T15:44:17;6.70;1.00
12557;DHT22;6344;49.932;8.308;2023-01-15T15:47:19;6.70;1.00
12557;DHT22;6344;49.932;8.308;2023-01-15T15:50:12;6.70;1.00
12557;DHT22;6344;49.932;8.308;2023-01-15T15:52:49;6.60;1.00
12557;DHT22;6344;49.932;8.308;2023-01-15T15:55:18;6.60;1.00
12557;DHT22;6344;49.932;8.308;2023-01-15T15:57:51;6.60;1.00
12557;DHT22;6344;49.932;8.308;2023-01-15T16:00:24;6.50;1.00
12557;DHT22;6344;49.932;8.308;2023-01-15T16:02:53;6.50;1.00
12557;DHT22;6344;49.932;8.308;2023-01-15T16:05:25;6.60;1.00
12557;DHT22;6344;49.932;8.308;2023-01-15T16:08:07;6.50;1.00
12557;DHT22;6344;49.932;8.308;2023-01-15T16:10:40;6.50;1.00
12557;DHT22;6344;49.932;8.308;2023-01-15T16:13:20;6.40;1.00
12557;DHT22;6344;49.932;8.308;2023-01-15T16:15:49;6.20;9.60
12557;DHT22;6344;49.932;8.308;2023-01-15T16:18:23;6.00;28.80
12557;DHT22;6344;49.932;8.308;2023-01-15T16:20:54;5.90;73.10
12557;DHT22;6344;49.932;8.308;2023-01-15T16:23:24;5.70;99.60
12557;DHT22;6344;49.932;8.308;2023-01-15T16:25:59;5.60;98.10
12557;DHT22;6344;49.932;8.308;2023-01-15T16:28:36;5.60;99.90
12557;DHT22;6344;49.932;8.308;2023-01-15T16:31:06;5.60;99.90
12557;DHT22;6344;49.932;8.308;2023-01-15T16:33:35;5.50;99.90
12557;DHT22;6344;49.932;8.308;2023-01-15T16:36:13;5.40;99.90
12557;DHT22;6344;49.932;8.308;2023-01-15T16:38:42;5.30;99.90
12557;DHT22;6344;49.932;8.308;2023-01-15T16:41:18;5.20;99.90
12557;DHT22;6344;49.932;8.308;2023-01-15T16:43:51;5.20;99.90
12557;DHT22;6344;49.932;8.308;2023-01-15T16:46:19;5.10;99.90
12557;DHT22;6344;49.932;8.308;2023-01-15T16:48:47;5.10;99.90
12557;DHT22;6344;49.932;8.308;2023-01-15T16:51:29;5.10;99.90
12557;DHT22;6344;49.932;8.308;2023-01-15T16:54:00;5.10;99.90
12557;DHT22;6344;49.932;8.308;2023-01-15T16:56:47;5.00;99.90
12557;DHT22;6344;49.932;8.308;2023-01-15T16:59:16;4.90;99.90